sensor_id;sensor_type;location;lat;lon;timestamp;P1;durP1;ratioP1;P2;durP2;ratioP2
56399;SDS011;42298;53.638;9.876;2023-01-23T06:59:44;14.67;;;9.37;;
56399;SDS011;42298;53.638;9.876;2023-01-23T07:02:10;13.67;;;9.17;;
56399;SDS011;42298;53.638;9.876;2023-01-23T07:04:36;16.13;;;9.03;;
56399;SDS011;42298;53.638;9.876;2023-01-23T07:07:01;15.80;;;9.53;;
56399;SDS011;42298;53.638;9.876;2023-01-23T07:09:27;14.37;;;8.23;;
56399;SDS011;42298;53.638;9.876;2023-01-23T07:11:53;13.43;;;8.80;;
56399;SDS011;42298;53.638;9.876;2023-01-23T07:14:18;14.67;;;8.40;;
56399;SDS011;42298;53.638;9.876;2023-01-23T07:16:43;16.27;;;8.97;;
56399;SDS011;42298;53.638;9.876;2023-01-23T07:19:09;16.50;;;10.27;;
56399;SDS011;42298;53.638;9.876;2023-01-23T07:21:34;14.73;;;9.27;;
56399;SDS011;42298;53.638;9.876;2023-01-23T07:23:59;15.47;;;9.27;;
56399;SDS011;42298;53.638;9.876;2023-01-23T07:26:25;14.57;;;9.60;;
56399;SDS011;42298;53.638;9.876;2023-01-23T07:28:51;17.07;;;10.20;;
56399;SDS011;42298;53.638;9.876;2023-01-23T07:31:17;15.17;;;9.83;;
56399;SDS011;42298;53.638;9.876;2023-01-23T07:33:43;15.30;;;9.77;;
56399;SDS011;42298;53.638;9.876;2023-01-23T07:36:08;14.80;;;9.70;;
56399;SDS011;42298;53.638;9.876;2023-01-23T07:38:34;16.27;;;9.30;;
56399;SDS011;42298;53.638;9.876;2023-01-23T07:41:00;16.67;;;10.60;;
56399;SDS011;42298;53.638;9.876;2023-01-23T07:43:25;14.90;;;9.17;;
56399;SDS011;42298;53.638;9.876;2023-01-23T07:45:51;16.43;;;10.17;;
56399;SDS011;42298;53.638;9.876;2023-01-23T07:48:17;16.27;;;9.90;;
56399;SDS011;42298;53.638;9.876;2023-01-23T07:50:42;15.73;;;10.03;;
56399;SDS011;42298;53.638;9.876;2023-01-23T07:53:07;15.57;;;9.50;;
56399;SDS011;42298;53.638;9.876;2023-01-23T07:55:33;16.00;;;10.40;;
56399;SDS011;42298;53.638;9.876;2023-01-23T07:58:01;15.60;;;9.17;;
56399;SDS011;42298;53.638;9.876;2023-01-23T08:00:26;15.90;;;9.50;;
56399;SDS011;42298;53.638;9.876;2023-01-23T08:02:52;14.73;;;9.33;;
56399;SDS011;42298;53.638;9.876;2023-01-23T08:05:17;17.80;;;10.63;;
56399;SDS011;42298;53.638;9.876;2023-01-23T08:07:42;19.23;;;10.20;;
56399;SDS011;42298;53.638;9.876;2023-01-23T08:10:08;18.47;;;11.13;;
56399;SDS011;42298;53.638;9.876;2023-01-23T08:12:34;15.70;;;9.80;;
56399;SDS011;42298;53.638;9.876;2023-01-23T08:14:59;15.63;;;9.20;;
56399;SDS011;42298;53.638;9.876;2023-01-23T08:17:25;14.43;;;9.13;;
56399;SDS011;42298;53.638;9.876;2023-01-23T08:19:50;18.27;;;10.33;;
56399;SDS011;42298;53.638;9.876;2023-01-23T08:22:15;13.23;;;8.90;;
56399;SDS011;42298;53.638;9.876;2023-01-23T08:24:40;18.33;;;10.07;;
56399;SDS011;42298;53.638;9.876;2023-01-23T08:27:06;12.93;;;8.53;;
56399;SDS011;42298;53.638;9.876;2023-01-23T08:29:32;15.47;;;9.70;;
56399;SDS011;42298;53.638;9.876;2023-01-23T08:31:57;16.37;;;10.23;;
56399;SDS011;42298;53.638;9.876;2023-01-23T08:34:23;16.70;;;10.03;;
56399;SDS011;42298;53.638;9.876;2023-01-23T08:36:48;14.60;;;8.63;;
56399;SDS011;42298;53.638;9.876;2023-01-23T08:39:17;14.57;;;9.07;;
56399;SDS011;42298;53.638;9.876;2023-01-23T08:41:43;16.37;;;9.43;;
56399;SDS011;42298;53.638;9.876;2023-01-23T08:44:09;15.47;;;9.50;;
56399;SDS011;42298;53.638;9.876;2023-01-23T08:46:34;16.10;;;9.77;;
56399;SDS011;42298;53.638;9.876;2023-01-23T08:49:00;14.23;;;8.23;;
56399;SDS011;42298;53.638;9.876;2023-01-23T08:51:25;17.17;;;9.40;;
56399;SDS011;42298;53.638;9.876;2023-01-23T08:53:51;14.57;;;8.63;;
56399;SDS011;42298;53.638;9.876;2023-01-23T08:56:17;15.50;;;9.53;;
56399;SDS011;42298;53.638;9.876;2023-01-23T08:58:45;15.40;;;8.87;;
56399;SDS011;42298;53.638;9.876;2023-01-23T09:01:14;14.67;;;8.77;;
56399;SDS011;42298;53.638;9.876;2023-01-23T09:03:41;15.77;;;8.87;;
56399;SDS011;42298;53.638;9.876;2023-01-23T09:06:08;16.67;;;10.03;;
56399;SDS011;42298;53.638;9.876;2023-01-23T09:08:55;13.73;;;8.83;;
56399;SDS011;42298;53.638;9.876;2023-01-23T09:11:20;15.70;;;9.00;;
56399;SDS011;42298;53.638;9.876;2023-01-23T09:13:47;14.63;;;9.17;;
56399;SDS011;42298;53.638;9.876;2023-01-23T09:16:12;16.03;;;9.43;;
56399;SDS011;42298;53.638;9.876;2023-01-23T09:18:38;14.03;;;9.17;;
56399;SDS011;42298;53.638;9.876;2023-01-23T09:21:07;16.47;;;10.50;;
56399;SDS011;42298;53.638;9.876;2023-01-23T09:23:35;16.27;;;9.67;;
56399;SDS011;42298;53.638;9.876;2023-01-23T09:26:01;14.97;;;9.60;;
56399;SDS011;42298;53.638;9.876;2023-01-23T09:28:33;16.53;;;10.20;;
56399;SDS011;42298;53.638;9.876;2023-01-23T09:31:03;17.07;;;10.50;;
56399;SDS011;42298;53.638;9.876;2023-01-23T09:33:31;16.67;;;10.57;;
56399;SDS011;42298;53.638;9.876;2023-01-23T09:35:57;15.03;;;9.40;;
56399;SDS011;42298;53.638;9.876;2023-01-23T09:38:22;14.07;;;9.00;;
56399;SDS011;42298;53.638;9.876;2023-01-23T09:40:50;14.60;;;8.73;;
56399;SDS011;42298;53.638;9.876;2023-01-23T09:43:22;17.43;;;9.83;;
56399;SDS011;42298;53.638;9.876;2023-01-23T09:46:11;14.90;;;9.27;;
56399;SDS011;42298;53.638;9.876;2023-01-23T09:48:42;16.50;;;10.33;;
56399;SDS011;42298;53.638;9.876;2023-01-23T09:51:11;16.37;;;10.30;;
56399;SDS011;42298;53.638;9.876;2023-01-23T09:53:44;16.90;;;10.50;;
56399;SDS011;42298;53.638;9.876;2023-01-23T09:59:12;17.30;;;10.10;;
56399;SDS011;42298;53.638;9.876;2023-01-23T10:01:47;19.23;;;10.60;;
56399;SDS011;42298;53.638;9.876;2023-01-23T10:04:13;17.27;;;10.10;;
56399;SDS011;42298;53.638;9.876;2023-01-23T10:07:04;16.07;;;10.53;;
56399;SDS011;42298;53.638;9.876;2023-01-23T10:12:08;19.40;;;11.57;;
56399;SDS011;42298;53.638;9.876;2023-01-23T10:15:06;16.07;;;9.90;;
56399;SDS011;42298;53.638;9.876;2023-01-23T10:25:48;18.20;;;10.30;;
56399;SDS011;42298;53.638;9.876;2023-01-23T10:28:21;18.60;;;11.00;;
56399;SDS011;42298;53.638;9.876;2023-01-23T10:30:54;19.17;;;10.60;;
56399;SDS011;42298;53.638;9.876;2023-01-23T10:33:33;16.93;;;10.33;;
56399;SDS011;42298;53.638;9.876;2023-01-23T10:36:51;17.97;;;10.37;;
56399;SDS011;42298;53.638;9.876;2023-01-23T10:39:04;18.47;;;9.90;;
56399;SDS011;42298;53.638;9.876;2023-01-23T10:41:34;13.80;;;8.90;;
56399;SDS011;42298;53.638;9.876;2023-01-23T10:43:59;18.97;;;9.83;;
56399;SDS011;42298;53.638;9.876;2023-01-23T10:46:30;20.50;;;9.77;;
56399;SDS011;42298;53.638;9.876;2023-01-23T10:49:00;16.83;;;10.13;;
56399;SDS011;42298;53.638;9.876;2023-01-23T10:56:38;17.83;;;10.13;;
56399;SDS011;42298;53.638;9.876;2023-01-23T10:59:12;18.80;;;9.93;;
56399;SDS011;42298;53.638;9.876;2023-01-23T11:01:59;19.37;;;10.80;;
56399;SDS011;42298;53.638;9.876;2023-01-23T11:04:28;18.50;;;9.73;;
56399;SDS011;42298;53.638;9.876;2023-01-23T11:09:43;16.47;;;9.97;;
56399;SDS011;42298;53.638;9.876;2023-01-23T11:12:15;16.73;;;9.43;;
56399;SDS011;42298;53.638;9.876;2023-01-23T11:14:45;19.80;;;11.00;;
56399;SDS011;42298;53.638;9.876;2023-01-23T11:19:48;19.97;;;10.77;;
56399;SDS011;42298;53.638;9.876;2023-01-23T11:22:25;19.70;;;10.87;;
56399;SDS011;42298;53.638;9.876;2023-01-23T11:24:53;17.13;;;9.43;;
56399;SDS011;42298;53.638;9.876;2023-01-23T11:32:32;20.00;;;10.20;;
56399;SDS011;42298;53.638;9.876;2023-01-23T11:35:09;20.43;;;9.87;;
56399;SDS011;42298;53.638;9.876;2023-01-23T11:37:38;18.60;;;11.17;;
56399;SDS011;42298;53.638;9.876;2023-01-23T11:42:36;19.43;;;10.57;;
56399;SDS011;42298;53.638;9.876;2023-01-23T11:45:10;16.97;;;9.67;;
56399;SDS011;42298;53.638;9.876;2023-01-23T11:47:54;18.27;;;10.13;;
56399;SDS011;42298;53.638;9.876;2023-01-23T11:50:35;19.97;;;10.73;;
56399;SDS011;42298;53.638;9.876;2023-01-23T12:07:14;18.33;;;10.23;;
56399;SDS011;42298;53.638;9.876;2023-01-23T12:15:38;21.13;;;10.50;;
56399;SDS011;42298;53.638;9.876;2023-01-23T12:20:51;18.97;;;10.93;;
56399;SDS011;42298;53.638;9.876;2023-01-23T12:23:35;16.23;;;9.67;;
56399;SDS011;42298;53.638;9.876;2023-01-23T12:39:59;20.07;;;10.43;;
56399;SDS011;42298;53.638;9.876;2023-01-23T12:42:35;18.87;;;9.77;;
56399;SDS011;42298;53.638;9.876;2023-01-23T12:47:54;17.80;;;9.73;;
56399;SDS011;42298;53.638;9.876;2023-01-23T12:53:06;21.43;;;11.33;;
56399;SDS011;42298;53.638;9.876;2023-01-23T12:55:35;19.47;;;10.53;;
56399;SDS011;42298;53.638;9.876;2023-01-23T12:58:05;18.33;;;10.60;;
56399;SDS011;42298;53.638;9.876;2023-01-23T13:06:16;18.37;;;10.13;;
56399;SDS011;42298;53.638;9.876;2023-01-23T13:14:42;18.77;;;11.00;;
56399;SDS011;42298;53.638;9.876;2023-01-23T13:20:51;18.87;;;10.83;;
56399;SDS011;42298;53.638;9.876;2023-01-23T13:23:24;17.00;;;9.43;;
56399;SDS011;42298;53.638;9.876;2023-01-23T13:28:53;17.57;;;10.30;;
56399;SDS011;42298;53.638;9.876;2023-01-23T13:36:39;16.23;;;10.03;;
56399;SDS011;42298;53.638;9.876;2023-01-23T13:41:46;16.90;;;10.27;;
56399;SDS011;42298;53.638;9.876;2023-01-23T13:44:25;17.80;;;10.33;;
56399;SDS011;42298;53.638;9.876;2023-01-23T13:50:14;18.23;;;10.60;;
56399;SDS011;42298;53.638;9.876;2023-01-23T13:52:50;17.00;;;9.47;;
56399;SDS011;42298;53.638;9.876;2023-01-23T13:55:39;16.50;;;8.93;;
56399;SDS011;42298;53.638;9.876;2023-01-23T13:58:26;17.83;;;9.93;;
56399;SDS011;42298;53.638;9.876;2023-01-23T14:01:00;18.03;;;10.67;;
56399;SDS011;42298;53.638;9.876;2023-01-23T14:03:51;18.40;;;9.93;;
56399;SDS011;42298;53.638;9.876;2023-01-23T14:06:41;17.60;;;10.47;;
56399;SDS011;42298;53.638;9.876;2023-01-23T14:09:20;17.37;;;9.67;;
56399;SDS011;42298;53.638;9.876;2023-01-23T14:11:46;16.10;;;9.77;;
56399;SDS011;42298;53.638;9.876;2023-01-23T14:14:14;19.37;;;11.27;;
56399;SDS011;42298;53.638;9.876;2023-01-23T14:16:58;17.90;;;10.83;;
56399;SDS011;42298;53.638;9.876;2023-01-23T14:19:29;18.50;;;10.40;;
56399;SDS011;42298;53.638;9.876;2023-01-23T14:21:59;18.73;;;11.03;;
56399;SDS011;42298;53.638;9.876;2023-01-23T14:24:38;19.30;;;10.73;;
56399;SDS011;42298;53.638;9.876;2023-01-23T14:27:16;18.30;;;9.77;;
56399;SDS011;42298;53.638;9.876;2023-01-23T14:30:01;18.63;;;10.70;;
56399;SDS011;42298;53.638;9.876;2023-01-23T14:32:34;18.43;;;10.30;;
56399;SDS011;42298;53.638;9.876;2023-01-23T14:35:00;18.30;;;11.07;;
56399;SDS011;42298;53.638;9.876;2023-01-23T14:37:25;16.90;;;10.40;;
56399;SDS011;42298;53.638;9.876;2023-01-23T14:39:51;18.27;;;10.63;;
56399;SDS011;42298;53.638;9.876;2023-01-23T14:42:27;19.70;;;11.33;;
56399;SDS011;42298;53.638;9.876;2023-01-23T14:44:54;18.93;;;11.13;;
56399;SDS011;42298;53.638;9.876;2023-01-23T14:49:58;18.40;;;10.63;;
56399;SDS011;42298;53.638;9.876;2023-01-23T14:52:26;17.40;;;10.73;;
56399;SDS011;42298;53.638;9.876;2023-01-23T14:54:54;19.07;;;11.43;;
56399;SDS011;42298;53.638;9.876;2023-01-23T14:57:24;16.90;;;11.40;;
56399;SDS011;42298;53.638;9.876;2023-01-23T14:59:54;21.17;;;11.17;;
56399;SDS011;42298;53.638;9.876;2023-01-23T15:07:45;17.30;;;10.90;;
56399;SDS011;42298;53.638;9.876;2023-01-23T15:10:15;21.27;;;12.60;;
56399;SDS011;42298;53.638;9.876;2023-01-23T15:15:49;19.90;;;12.20;;
56399;SDS011;42298;53.638;9.876;2023-01-23T15:18:28;20.33;;;12.73;;
56399;SDS011;42298;53.638;9.876;2023-01-23T15:21:06;23.43;;;12.73;;
56399;SDS011;42298;53.638;9.876;2023-01-23T15:23:36;19.10;;;12.07;;
56399;SDS011;42298;53.638;9.876;2023-01-23T15:28:51;19.43;;;12.27;;
56399;SDS011;42298;53.638;9.876;2023-01-23T15:31:27;18.83;;;12.07;;
56399;SDS011;42298;53.638;9.876;2023-01-23T15:33:56;21.37;;;11.57;;
56399;SDS011;42298;53.638;9.876;2023-01-23T15:36:35;20.73;;;12.33;;
56399;SDS011;42298;53.638;9.876;2023-01-23T15:39:01;20.53;;;12.13;;
56399;SDS011;42298;53.638;9.876;2023-01-23T15:41:41;20.87;;;12.23;;
56399;SDS011;42298;53.638;9.876;2023-01-23T15:44:13;20.87;;;12.57;;
56399;SDS011;42298;53.638;9.876;2023-01-23T15:46:40;19.13;;;12.10;;
56399;SDS011;42298;53.638;9.876;2023-01-23T15:49:06;20.57;;;12.37;;
56399;SDS011;42298;53.638;9.876;2023-01-23T15:51:31;20.00;;;12.63;;
56399;SDS011;42298;53.638;9.876;2023-01-23T15:53:56;22.37;;;13.10;;
56399;SDS011;42298;53.638;9.876;2023-01-23T15:56:26;21.27;;;12.97;;
56399;SDS011;42298;53.638;9.876;2023-01-23T15:58:53;22.73;;;13.63;;
56399;SDS011;42298;53.638;9.876;2023-01-23T16:01:19;22.33;;;13.20;;
56399;SDS011;42298;53.638;9.876;2023-01-23T16:03:45;22.93;;;14.37;;
56399;SDS011;42298;53.638;9.876;2023-01-23T16:06:21;20.87;;;12.93;;
56399;SDS011;42298;53.638;9.876;2023-01-23T16:08:48;22.13;;;13.90;;
56399;SDS011;42298;53.638;9.876;2023-01-23T16:11:15;21.40;;;13.07;;
56399;SDS011;42298;53.638;9.876;2023-01-23T16:13:40;21.77;;;14.17;;
56399;SDS011;42298;53.638;9.876;2023-01-23T16:16:11;22.23;;;13.57;;
56399;SDS011;42298;53.638;9.876;2023-01-23T16:18:37;21.90;;;13.53;;
56399;SDS011;42298;53.638;9.876;2023-01-23T16:21:03;20.30;;;13.00;;
56399;SDS011;42298;53.638;9.876;2023-01-23T16:23:28;20.47;;;13.67;;
56399;SDS011;42298;53.638;9.876;2023-01-23T16:26:11;23.60;;;16.00;;
56399;SDS011;42298;53.638;9.876;2023-01-23T16:28:49;21.63;;;14.90;;
56399;SDS011;42298;53.638;9.876;2023-01-23T16:31:15;22.03;;;13.77;;
56399;SDS011;42298;53.638;9.876;2023-01-23T16:33:41;22.40;;;14.57;;
56399;SDS011;42298;53.638;9.876;2023-01-23T16:36:16;23.80;;;14.47;;
56399;SDS011;42298;53.638;9.876;2023-01-23T16:38:52;19.03;;;13.70;;
56399;SDS011;42298;53.638;9.876;2023-01-23T16:41:20;23.80;;;14.10;;
56399;SDS011;42298;53.638;9.876;2023-01-23T16:43:46;21.20;;;12.63;;
56399;SDS011;42298;53.638;9.876;2023-01-23T16:46:11;18.63;;;12.03;;
56399;SDS011;42298;53.638;9.876;2023-01-23T16:48:37;23.20;;;13.83;;
56399;SDS011;42298;53.638;9.876;2023-01-23T16:51:07;22.80;;;15.33;;
56399;SDS011;42298;53.638;9.876;2023-01-23T16:53:48;22.30;;;14.43;;
56399;SDS011;42298;53.638;9.876;2023-01-23T16:56:23;23.90;;;15.77;;
56399;SDS011;42298;53.638;9.876;2023-01-23T16:58:53;22.63;;;15.60;;
56399;SDS011;42298;53.638;9.876;2023-01-23T17:01:20;25.40;;;15.90;;
56399;SDS011;42298;53.638;9.876;2023-01-23T17:03:51;35.13;;;23.47;;
56399;SDS011;42298;53.638;9.876;2023-01-23T17:06:20;23.77;;;15.17;;
56399;SDS011;42298;53.638;9.876;2023-01-23T17:08:46;23.83;;;14.93;;
56399;SDS011;42298;53.638;9.876;2023-01-23T17:14:08;25.40;;;15.40;;
56399;SDS011;42298;53.638;9.876;2023-01-23T17:16:38;24.53;;;16.23;;
56399;SDS011;42298;53.638;9.876;2023-01-23T17:19:08;26.13;;;17.33;;
56399;SDS011;42298;53.638;9.876;2023-01-23T17:21:39;25.97;;;15.57;;
56399;SDS011;42298;53.638;9.876;2023-01-23T17:24:05;23.43;;;15.93;;
56399;SDS011;42298;53.638;9.876;2023-01-23T17:26:35;22.47;;;14.50;;
56399;SDS011;42298;53.638;9.876;2023-01-23T17:29:00;24.70;;;15.30;;
56399;SDS011;42298;53.638;9.876;2023-01-23T17:31:26;22.53;;;14.00;;
56399;SDS011;42298;53.638;9.876;2023-01-23T17:33:52;19.60;;;12.50;;
56399;SDS011;42298;53.638;9.876;2023-01-23T17:36:19;21.77;;;14.17;;
56399;SDS011;42298;53.638;9.876;2023-01-23T17:38:45;22.93;;;14.13;;
56399;SDS011;42298;53.638;9.876;2023-01-23T17:41:11;23.50;;;13.87;;
56399;SDS011;42298;53.638;9.876;2023-01-23T17:43:40;24.03;;;15.00;;
56399;SDS011;42298;53.638;9.876;2023-01-23T17:46:11;24.17;;;14.90;;
56399;SDS011;42298;53.638;9.876;2023-01-23T17:48:44;26.53;;;15.97;;
56399;SDS011;42298;53.638;9.876;2023-01-23T17:51:16;22.50;;;14.30;;
56399;SDS011;42298;53.638;9.876;2023-01-23T17:53:43;24.70;;;15.27;;
56399;SDS011;42298;53.638;9.876;2023-01-23T17:56:09;22.37;;;15.40;;
56399;SDS011;42298;53.638;9.876;2023-01-23T17:58:35;22.93;;;14.70;;
56399;SDS011;42298;53.638;9.876;2023-01-23T18:01:02;23.37;;;15.17;;
56399;SDS011;42298;53.638;9.876;2023-01-23T18:03:29;22.13;;;14.97;;
56399;SDS011;42298;53.638;9.876;2023-01-23T18:05:54;22.37;;;15.37;;
56399;SDS011;42298;53.638;9.876;2023-01-23T18:08:20;26.27;;;15.30;;
56399;SDS011;42298;53.638;9.876;2023-01-23T18:10:47;28.00;;;15.60;;
56399;SDS011;42298;53.638;9.876;2023-01-23T18:18:38;25.70;;;15.90;;
56399;SDS011;42298;53.638;9.876;2023-01-23T18:21:05;23.13;;;15.23;;
56399;SDS011;42298;53.638;9.876;2023-01-23T18:23:36;25.57;;;15.83;;
56399;SDS011;42298;53.638;9.876;2023-01-23T18:28:58;23.37;;;15.23;;
56399;SDS011;42298;53.638;9.876;2023-01-23T18:34:31;25.40;;;15.43;;
56399;SDS011;42298;53.638;9.876;2023-01-23T18:37:14;22.57;;;15.53;;
56399;SDS011;42298;53.638;9.876;2023-01-23T18:39:53;28.20;;;16.97;;
56399;SDS011;42298;53.638;9.876;2023-01-23T18:42:31;26.97;;;17.07;;
56399;SDS011;42298;53.638;9.876;2023-01-23T18:45:02;29.30;;;16.00;;
56399;SDS011;42298;53.638;9.876;2023-01-23T18:47:32;24.83;;;15.43;;
56399;SDS011;42298;53.638;9.876;2023-01-23T18:49:58;25.30;;;15.30;;
56399;SDS011;42298;53.638;9.876;2023-01-23T18:52:28;25.67;;;15.90;;
56399;SDS011;42298;53.638;9.876;2023-01-23T18:57:54;23.70;;;15.30;;
56399;SDS011;42298;53.638;9.876;2023-01-23T19:00:33;28.30;;;16.53;;
56399;SDS011;42298;53.638;9.876;2023-01-23T19:06:02;27.50;;;16.57;;
56399;SDS011;42298;53.638;9.876;2023-01-23T19:08:36;27.90;;;17.43;;
56399;SDS011;42298;53.638;9.876;2023-01-23T19:11:05;28.33;;;17.87;;
56399;SDS011;42298;53.638;9.876;2023-01-23T19:13:51;29.93;;;18.03;;
56399;SDS011;42298;53.638;9.876;2023-01-23T19:16:52;26.97;;;16.03;;
56399;SDS011;42298;53.638;9.876;2023-01-23T19:19:30;29.63;;;18.23;;
56399;SDS011;42298;53.638;9.876;2023-01-23T19:22:07;28.67;;;16.60;;
56399;SDS011;42298;53.638;9.876;2023-01-23T19:24:36;26.57;;;17.37;;
56399;SDS011;42298;53.638;9.876;2023-01-23T19:27:01;27.57;;;17.53;;
56399;SDS011;42298;53.638;9.876;2023-01-23T19:29:27;28.30;;;17.30;;
56399;SDS011;42298;53.638;9.876;2023-01-23T19:31:52;23.50;;;15.23;;
56399;SDS011;42298;53.638;9.876;2023-01-23T19:34:18;26.10;;;17.40;;
56399;SDS011;42298;53.638;9.876;2023-01-23T19:36:43;29.67;;;17.70;;
56399;SDS011;42298;53.638;9.876;2023-01-23T19:39:08;30.83;;;18.30;;
56399;SDS011;42298;53.638;9.876;2023-01-23T19:41:41;27.70;;;17.23;;
56399;SDS011;42298;53.638;9.876;2023-01-23T19:44:14;29.53;;;17.40;;
56399;SDS011;42298;53.638;9.876;2023-01-23T19:46:41;31.10;;;16.97;;
56399;SDS011;42298;53.638;9.876;2023-01-23T19:49:08;29.07;;;16.70;;
56399;SDS011;42298;53.638;9.876;2023-01-23T19:51:34;31.57;;;17.10;;
56399;SDS011;42298;53.638;9.876;2023-01-23T19:54:00;27.13;;;17.23;;
56399;SDS011;42298;53.638;9.876;2023-01-23T19:56:26;30.07;;;17.77;;
56399;SDS011;42298;53.638;9.876;2023-01-23T19:58:52;29.57;;;17.93;;
56399;SDS011;42298;53.638;9.876;2023-01-23T20:01:21;31.13;;;17.40;;
56399;SDS011;42298;53.638;9.876;2023-01-23T20:03:57;28.40;;;17.20;;
56399;SDS011;42298;53.638;9.876;2023-01-23T20:06:22;29.80;;;17.90;;
56399;SDS011;42298;53.638;9.876;2023-01-23T20:08:47;30.37;;;17.83;;
56399;SDS011;42298;53.638;9.876;2023-01-23T20:11:13;28.87;;;18.37;;
56399;SDS011;42298;53.638;9.876;2023-01-23T20:13:39;30.93;;;18.43;;
56399;SDS011;42298;53.638;9.876;2023-01-23T20:16:08;27.23;;;17.80;;
56399;SDS011;42298;53.638;9.876;2023-01-23T20:18:38;30.37;;;17.93;;
56399;SDS011;42298;53.638;9.876;2023-01-23T20:21:07;29.13;;;16.93;;
56399;SDS011;42298;53.638;9.876;2023-01-23T20:23:32;31.97;;;18.93;;
56399;SDS011;42298;53.638;9.876;2023-01-23T20:25:58;31.77;;;17.83;;
56399;SDS011;42298;53.638;9.876;2023-01-23T20:28:24;28.97;;;18.00;;
56399;SDS011;42298;53.638;9.876;2023-01-23T20:30:50;28.97;;;17.60;;
56399;SDS011;42298;53.638;9.876;2023-01-23T20:33:17;30.97;;;16.97;;
56399;SDS011;42298;53.638;9.876;2023-01-23T20:35:44;28.80;;;16.90;;
56399;SDS011;42298;53.638;9.876;2023-01-23T20:38:09;27.50;;;17.20;;
56399;SDS011;42298;53.638;9.876;2023-01-23T20:40:35;28.33;;;17.23;;
56399;SDS011;42298;53.638;9.876;2023-01-23T20:43:01;28.03;;;17.23;;
56399;SDS011;42298;53.638;9.876;2023-01-23T20:45:26;28.67;;;18.80;;
56399;SDS011;42298;53.638;9.876;2023-01-23T20:47:52;29.17;;;18.57;;
56399;SDS011;42298;53.638;9.876;2023-01-23T20:50:17;31.40;;;18.77;;
56399;SDS011;42298;53.638;9.876;2023-01-23T20:52:42;28.57;;;17.90;;
56399;SDS011;42298;53.638;9.876;2023-01-23T20:55:26;27.33;;;17.03;;
56399;SDS011;42298;53.638;9.876;2023-01-23T20:57:52;29.50;;;17.63;;
56399;SDS011;42298;53.638;9.876;2023-01-23T21:00:35;27.33;;;16.80;;
56399;SDS011;42298;53.638;9.876;2023-01-23T21:03:01;31.30;;;18.43;;
56399;SDS011;42298;53.638;9.876;2023-01-23T21:05:26;29.73;;;17.27;;
56399;SDS011;42298;53.638;9.876;2023-01-23T21:07:51;27.73;;;17.17;;
56399;SDS011;42298;53.638;9.876;2023-01-23T21:10:17;31.53;;;17.60;;
56399;SDS011;42298;53.638;9.876;2023-01-23T21:12:42;27.47;;;18.30;;
56399;SDS011;42298;53.638;9.876;2023-01-23T21:15:09;29.37;;;17.97;;
56399;SDS011;42298;53.638;9.876;2023-01-23T21:17:34;28.80;;;17.33;;
56399;SDS011;42298;53.638;9.876;2023-01-23T21:19:59;28.83;;;17.57;;
56399;SDS011;42298;53.638;9.876;2023-01-23T21:22:27;26.83;;;16.20;;
56399;SDS011;42298;53.638;9.876;2023-01-23T21:24:52;27.60;;;17.27;;
56399;SDS011;42298;53.638;9.876;2023-01-23T21:27:18;33.97;;;18.27;;
56399;SDS011;42298;53.638;9.876;2023-01-23T21:29:43;33.30;;;19.33;;
56399;SDS011;42298;53.638;9.876;2023-01-23T21:32:08;30.00;;;19.10;;
56399;SDS011;42298;53.638;9.876;2023-01-23T21:34:34;28.63;;;17.57;;
56399;SDS011;42298;53.638;9.876;2023-01-23T21:36:59;32.43;;;18.20;;
56399;SDS011;42298;53.638;9.876;2023-01-23T21:39:24;33.63;;;19.43;;
56399;SDS011;42298;53.638;9.876;2023-01-23T21:41:49;31.70;;;18.77;;
56399;SDS011;42298;53.638;9.876;2023-01-23T21:44:15;30.07;;;18.60;;
56399;SDS011;42298;53.638;9.876;2023-01-23T21:46:40;31.13;;;18.90;;
56399;SDS011;42298;53.638;9.876;2023-01-23T21:49:06;29.33;;;17.90;;
56399;SDS011;42298;53.638;9.876;2023-01-23T21:51:31;30.23;;;19.27;;
56399;SDS011;42298;53.638;9.876;2023-01-23T21:53:56;29.27;;;18.53;;
56399;SDS011;42298;53.638;9.876;2023-01-23T21:56:22;27.23;;;16.57;;
56399;SDS011;42298;53.638;9.876;2023-01-23T21:58:48;32.23;;;17.83;;
56399;SDS011;42298;53.638;9.876;2023-01-23T22:01:15;30.27;;;18.30;;
56399;SDS011;42298;53.638;9.876;2023-01-23T22:04:00;32.50;;;18.97;;
56399;SDS011;42298;53.638;9.876;2023-01-23T22:06:36;32.90;;;17.60;;
56399;SDS011;42298;53.638;9.876;2023-01-23T22:09:03;31.60;;;18.50;;
56399;SDS011;42298;53.638;9.876;2023-01-23T22:11:30;32.20;;;17.70;;
56399;SDS011;42298;53.638;9.876;2023-01-23T22:13:56;30.77;;;16.87;;
56399;SDS011;42298;53.638;9.876;2023-01-23T22:16:21;30.83;;;17.87;;
56399;SDS011;42298;53.638;9.876;2023-01-23T22:18:47;31.53;;;18.27;;
56399;SDS011;42298;53.638;9.876;2023-01-23T22:21:12;36.83;;;19.17;;
56399;SDS011;42298;53.638;9.876;2023-01-23T22:23:38;31.30;;;17.90;;
56399;SDS011;42298;53.638;9.876;2023-01-23T22:26:05;29.20;;;17.77;;
56399;SDS011;42298;53.638;9.876;2023-01-23T22:28:32;30.03;;;18.10;;
56399;SDS011;42298;53.638;9.876;2023-01-23T22:31:02;34.03;;;18.77;;
56399;SDS011;42298;53.638;9.876;2023-01-23T22:33:29;31.37;;;18.07;;
56399;SDS011;42298;53.638;9.876;2023-01-23T22:35:54;28.67;;;18.03;;
56399;SDS011;42298;53.638;9.876;2023-01-23T22:38:20;29.80;;;18.60;;
56399;SDS011;42298;53.638;9.876;2023-01-23T22:40:45;29.40;;;18.60;;
56399;SDS011;42298;53.638;9.876;2023-01-23T22:43:20;27.93;;;16.73;;
56399;SDS011;42298;53.638;9.876;2023-01-23T22:45:46;34.40;;;19.33;;
56399;SDS011;42298;53.638;9.876;2023-01-23T22:48:11;33.70;;;18.00;;
56399;SDS011;42298;53.638;9.876;2023-01-23T22:50:37;33.20;;;19.17;;
56399;SDS011;42298;53.638;9.876;2023-01-23T22:53:02;34.30;;;18.77;;
56399;SDS011;42298;53.638;9.876;2023-01-23T22:55:27;28.87;;;19.10;;
56399;SDS011;42298;53.638;9.876;2023-01-23T22:57:53;30.33;;;18.70;;
56399;SDS011;42298;53.638;9.876;2023-01-23T23:00:18;30.50;;;18.83;;
56399;SDS011;42298;53.638;9.876;2023-01-23T23:02:43;28.43;;;17.27;;
56399;SDS011;42298;53.638;9.876;2023-01-23T23:05:09;30.97;;;17.60;;
56399;SDS011;42298;53.638;9.876;2023-01-23T23:07:35;33.70;;;18.43;;
56399;SDS011;42298;53.638;9.876;2023-01-23T23:10:03;29.37;;;16.60;;
56399;SDS011;42298;53.638;9.876;2023-01-23T23:15:06;32.47;;;18.27;;
56399;SDS011;42298;53.638;9.876;2023-01-23T23:17:31;30.23;;;17.53;;
56399;SDS011;42298;53.638;9.876;2023-01-23T23:19:57;30.33;;;17.47;;
56399;SDS011;42298;53.638;9.876;2023-01-23T23:22:22;28.87;;;17.77;;
56399;SDS011;42298;53.638;9.876;2023-01-23T23:24:47;30.57;;;16.80;;
56399;SDS011;42298;53.638;9.876;2023-01-23T23:27:13;33.37;;;19.10;;
56399;SDS011;42298;53.638;9.876;2023-01-23T23:29:38;29.67;;;18.73;;
56399;SDS011;42298;53.638;9.876;2023-01-23T23:32:03;30.90;;;19.30;;
56399;SDS011;42298;53.638;9.876;2023-01-23T23:34:29;36.60;;;19.07;;
56399;SDS011;42298;53.638;9.876;2023-01-23T23:36:54;30.37;;;17.70;;
56399;SDS011;42298;53.638;9.876;2023-01-23T23:39:19;30.33;;;18.97;;
56399;SDS011;42298;53.638;9.876;2023-01-23T23:41:45;34.90;;;18.93;;
56399;SDS011;42298;53.638;9.876;2023-01-23T23:44:10;33.50;;;19.50;;
56399;SDS011;42298;53.638;9.876;2023-01-23T23:46:37;33.83;;;19.30;;
56399;SDS011;42298;53.638;9.876;2023-01-23T23:49:02;28.10;;;17.67;;
56399;SDS011;42298;53.638;9.876;2023-01-23T23:51:29;29.40;;;18.47;;
56399;SDS011;42298;53.638;9.876;2023-01-23T23:53:54;30.63;;;18.50;;